createdAt,value
2023-04-24T00:01:59.921Z,1.30
2023-04-24T00:12:59.744Z,1.60
2023-04-24T00:23:59.614Z,1.40
2023-04-24T00:34:59.493Z,1.30
2023-04-24T00:45:59.402Z,1.50
2023-04-24T00:56:59.228Z,1.50
2023-04-24T01:07:59.107Z,1.50
2023-04-24T01:18:59.003Z,1.30
2023-04-24T01:29:58.904Z,1.70
2023-04-24T01:40:58.758Z,1.20
2023-04-24T01:51:58.608Z,1.70
2023-04-24T02:02:58.638Z,1.30
2023-04-24T02:13:58.374Z,0.70
2023-04-24T02:24:58.274Z,1.10
2023-04-24T02:35:58.120Z,1.50
2023-04-24T02:46:57.992Z,1.20
2023-04-24T02:57:57.849Z,1.00
2023-04-24T03:08:57.722Z,1.80
2023-04-24T03:19:57.600Z,1.30
2023-04-24T03:30:57.503Z,1.40
2023-04-24T03:41:57.359Z,1.50
2023-04-24T03:52:57.231Z,1.60
2023-04-24T04:03:57.272Z,1.70
2023-04-24T04:14:56.985Z,1.30
2023-04-24T04:25:56.849Z,1.80
2023-04-24T04:36:56.761Z,2.00
2023-04-24T04:47:56.700Z,2.40
2023-04-24T04:58:56.483Z,2.90
2023-04-24T05:09:56.363Z,3.00
2023-04-24T05:20:56.233Z,3.10
2023-04-24T05:31:56.232Z,2.40
2023-04-24T05:42:56.018Z,4.10
2023-04-24T05:53:55.861Z,4.60
2023-04-24T06:04:55.820Z,4.40
2023-04-24T06:15:55.625Z,3.70
2023-04-24T06:26:55.491Z,3.60
2023-04-24T06:37:55.389Z,3.90
2023-04-24T06:48:55.232Z,2.30
2023-04-24T06:59:55.123Z,2.30
2023-04-24T07:10:54.978Z,2.40
2023-04-24T07:21:54.855Z,2.00
2023-04-24T07:32:54.799Z,1.70
2023-04-24T07:43:54.680Z,1.40
2023-04-24T07:54:54.476Z,2.30
2023-04-24T08:05:54.430Z,1.90
2023-04-24T08:16:54.227Z,1.80
2023-04-24T08:27:54.113Z,1.70
2023-04-24T08:38:53.971Z,2.00
2023-04-24T08:49:53.849Z,2.00
2023-04-24T09:00:53.741Z,2.30
2023-04-24T09:11:53.598Z,2.00
2023-04-24T09:22:53.497Z,2.10
2023-04-24T09:33:53.347Z,1.40
2023-04-24T09:44:58.890Z,2.10
2023-04-24T09:55:53.123Z,3.00
2023-04-24T10:06:52.979Z,2.30
2023-04-24T10:17:52.890Z,2.10
2023-04-24T10:28:52.740Z,2.30
2023-04-24T10:39:52.606Z,2.10
2023-04-24T10:50:52.487Z,2.10
2023-04-24T11:01:52.353Z,2.10
2023-04-24T11:12:52.308Z,2.60
2023-04-24T11:23:52.110Z,3.40
2023-04-24T11:34:51.993Z,3.00
2023-04-24T11:45:52.031Z,3.50
2023-04-24T11:56:51.730Z,3.20
2023-04-24T12:07:51.601Z,2.70
2023-04-24T12:18:51.565Z,2.90
2023-04-24T12:29:51.361Z,2.90
2023-04-24T12:40:51.226Z,2.40
2023-04-24T12:51:51.103Z,2.50
2023-04-24T13:02:51.088Z,3.20
2023-04-24T13:13:50.855Z,4.60
2023-04-24T13:24:50.830Z,3.40
2023-04-24T13:35:50.603Z,2.50
2023-04-24T13:46:50.473Z,3.90
2023-04-24T13:57:50.341Z,2.70
2023-04-24T14:08:50.239Z,2.30
2023-04-24T14:19:50.098Z,3.30
2023-04-24T14:30:50.116Z,2.80
2023-04-24T14:41:50.848Z,3.10
2023-04-24T14:52:49.730Z,2.50
2023-04-24T15:03:50.247Z,3.10
2023-04-24T15:14:49.483Z,2.90
2023-04-24T15:25:49.344Z,3.40
2023-04-24T15:36:49.261Z,3.20
2023-04-24T15:47:49.172Z,3.10
2023-04-24T15:58:49.290Z,3.20
2023-04-24T16:09:48.854Z,2.90
2023-04-24T16:20:50.442Z,2.40
2023-04-24T16:31:48.713Z,3.40
2023-04-24T16:42:48.480Z,2.70
2023-04-24T16:53:48.345Z,1.40
2023-04-24T17:04:48.319Z,2.00
2023-04-24T17:15:48.099Z,2.50
2023-04-24T17:26:47.992Z,2.00
2023-04-24T17:37:47.886Z,1.50
2023-04-24T17:48:49.618Z,2.60
2023-04-24T17:59:47.597Z,2.00
2023-04-24T18:10:47.486Z,2.70
2023-04-24T18:21:47.343Z,2.10
2023-04-24T18:32:47.235Z,2.30
2023-04-24T18:43:47.089Z,2.10
2023-04-24T18:54:46.991Z,2.20
2023-04-24T19:05:46.857Z,2.60
2023-04-24T19:16:46.762Z,2.30
2023-04-24T19:27:46.620Z,3.20
2023-04-24T19:38:46.581Z,2.40
2023-04-24T19:49:46.345Z,2.10
2023-04-24T20:00:46.219Z,2.50
2023-04-24T20:11:46.131Z,2.40
2023-04-24T20:22:45.981Z,2.80
2023-04-24T20:33:45.848Z,3.00
2023-04-24T20:44:45.737Z,3.40
2023-04-24T20:55:45.586Z,3.50
2023-04-24T21:06:45.464Z,3.10
2023-04-24T21:17:45.437Z,3.30
2023-04-24T21:28:45.213Z,3.10
2023-04-24T21:39:45.104Z,2.90
2023-04-24T21:50:44.960Z,3.30
2023-04-24T22:01:44.872Z,2.50
2023-04-24T22:12:44.716Z,2.30
2023-04-24T22:23:44.601Z,2.40
2023-04-24T22:34:44.465Z,2.20
2023-04-24T22:45:44.337Z,1.90
2023-04-24T22:56:44.200Z,1.80
2023-04-24T23:07:44.078Z,2.00
2023-04-24T23:18:43.951Z,2.00
2023-04-24T23:29:43.857Z,1.80
2023-04-24T23:40:43.741Z,2.80
2023-04-24T23:51:43.586Z,2.30
